createdAt,value
2017-08-13T00:00:34.570Z,89.9
2017-08-13T00:01:15.172Z,90
2017-08-13T00:01:55.738Z,90.19
2017-08-13T00:02:36.319Z,90
2017-08-13T00:03:16.902Z,90
2017-08-13T00:03:57.495Z,89.9
2017-08-13T00:04:38.068Z,90.47
2017-08-13T00:05:18.655Z,90.38
2017-08-13T00:05:59.243Z,90.57
2017-08-13T00:06:39.819Z,90.19
2017-08-13T00:07:20.385Z,90.19
2017-08-13T00:08:00.968Z,90.28
2017-08-13T00:08:41.560Z,89.8
2017-08-13T00:09:22.211Z,90
2017-08-13T00:10:02.817Z,89.9
2017-08-13T00:10:43.397Z,89.9
2017-08-13T00:11:23.990Z,90.38
2017-08-13T00:12:04.572Z,90.67
2017-08-13T00:12:45.177Z,90.47
2017-08-13T00:13:25.788Z,90.57
2017-08-13T00:14:06.360Z,90.28
2017-08-13T00:14:46.932Z,90.38
2017-08-13T00:15:27.517Z,90.47
2017-08-13T00:16:08.083Z,90.47
2017-08-13T00:16:48.660Z,90.38
2017-08-13T00:17:29.238Z,89.71
2017-08-13T00:18:09.806Z,89.8
2017-08-13T00:18:50.430Z,89.9
2017-08-13T00:19:31.011Z,89.9
2017-08-13T00:20:11.601Z,90
2017-08-13T00:20:52.217Z,89.8
2017-08-13T00:21:32.803Z,90.09
2017-08-13T00:22:13.377Z,90.19
2017-08-13T00:22:53.957Z,89.9
2017-08-13T00:23:34.566Z,89.9
2017-08-13T00:24:15.164Z,89.9
2017-08-13T00:24:55.739Z,90
2017-08-13T00:25:36.301Z,89.8
2017-08-13T00:26:16.874Z,90
2017-08-13T00:26:57.431Z,90
2017-08-13T00:27:38.005Z,89.71
2017-08-13T00:28:18.574Z,90
2017-08-13T00:28:59.154Z,90
2017-08-13T00:29:39.726Z,89.71
2017-08-13T00:30:26.887Z,89.8
2017-08-13T00:31:07.471Z,90
2017-08-13T00:31:48.054Z,90.09
2017-08-13T00:32:28.616Z,90
2017-08-13T00:33:09.184Z,90
2017-08-13T00:33:49.767Z,90.09
2017-08-13T00:34:30.333Z,89.71
2017-08-13T00:35:10.912Z,90
2017-08-13T00:35:51.481Z,90
2017-08-13T00:36:32.046Z,90.09
2017-08-13T00:37:12.633Z,89.71
2017-08-13T00:37:53.204Z,89.8
2017-08-13T00:38:33.771Z,89.9
2017-08-13T00:39:14.365Z,90.09
2017-08-13T00:39:54.940Z,90.09
2017-08-13T00:40:35.543Z,89.71
2017-08-13T00:41:16.099Z,89.9
2017-08-13T00:41:56.682Z,89.71
2017-08-13T00:42:37.265Z,89.8
2017-08-13T00:43:17.831Z,90.09
2017-08-13T00:43:58.493Z,89.8
2017-08-13T00:44:39.065Z,89.8
2017-08-13T00:45:19.637Z,89.9
2017-08-13T00:46:00.206Z,89.9
2017-08-13T00:46:40.775Z,89.71
2017-08-13T00:47:21.328Z,90.09
2017-08-13T00:48:01.890Z,90
2017-08-13T00:48:42.510Z,90.09
2017-08-13T00:49:23.098Z,90.09
2017-08-13T00:50:03.672Z,90.09
2017-08-13T00:50:44.245Z,90
2017-08-13T00:51:24.830Z,90
2017-08-13T00:52:05.409Z,89.9
2017-08-13T00:52:46.006Z,89.8
2017-08-13T00:53:26.573Z,89.9
2017-08-13T00:54:07.165Z,89.9
2017-08-13T00:54:47.725Z,89.9
2017-08-13T00:55:28.289Z,90
2017-08-13T00:56:08.868Z,90.09
2017-08-13T00:56:49.436Z,89.9
2017-08-13T00:57:30.018Z,90
2017-08-13T00:58:10.596Z,89.71
2017-08-13T00:58:51.180Z,90.09
2017-08-13T00:59:31.747Z,90.19
2017-08-13T01:00:12.326Z,89.23
2017-08-13T01:00:52.887Z,90.19
2017-08-13T01:01:33.472Z,90.19
2017-08-13T01:02:14.036Z,90.09
2017-08-13T01:02:54.607Z,90.09
2017-08-13T01:03:35.198Z,90.09
2017-08-13T01:04:15.801Z,90.19
2017-08-13T01:04:56.353Z,89.71
2017-08-13T01:05:36.927Z,90.09
2017-08-13T01:06:17.494Z,90
2017-08-13T01:06:58.064Z,89.9
2017-08-13T01:07:38.637Z,89.8
2017-08-13T01:08:19.211Z,89.8
2017-08-13T01:08:59.787Z,89.8
2017-08-13T01:09:40.377Z,89.71
2017-08-13T01:10:20.957Z,89.9
2017-08-13T01:11:01.543Z,90.09
2017-08-13T01:11:42.119Z,89.8
2017-08-13T01:12:22.698Z,90.28
2017-08-13T01:13:03.267Z,89.71
2017-08-13T01:13:43.831Z,90
2017-08-13T01:14:24.414Z,90.19
2017-08-13T01:15:05.036Z,90.19
2017-08-13T01:15:45.550Z,89.23
2017-08-13T01:16:26.139Z,90.23
2017-08-13T01:17:06.717Z,90.19
2017-08-13T01:17:47.290Z,90.23
2017-08-13T01:18:27.860Z,89.23
2017-08-13T01:19:08.426Z,89.47
2017-08-13T01:19:49.021Z,89.47
2017-08-13T01:20:29.601Z,89.27
2017-08-13T01:21:10.167Z,89.61
2017-08-13T01:21:50.743Z,89.23
2017-08-13T01:22:31.337Z,90.04
2017-08-13T01:23:11.974Z,89.9
2017-08-13T01:23:52.546Z,90.09
2017-08-13T01:24:33.127Z,90.09
2017-08-13T01:25:13.696Z,89.23
2017-08-13T01:25:54.270Z,89.61
2017-08-13T01:26:34.840Z,89.32
2017-08-13T01:27:15.413Z,89.42
2017-08-13T01:27:55.980Z,89.61
2017-08-13T01:28:36.555Z,89.71
2017-08-13T01:29:17.156Z,89.61
2017-08-13T01:29:57.717Z,90.19
2017-08-13T01:30:38.312Z,90.09
2017-08-13T01:31:18.889Z,90
2017-08-13T01:31:59.488Z,90.09
2017-08-13T01:32:40.081Z,90
2017-08-13T01:33:20.649Z,89.71
2017-08-13T01:34:01.211Z,89.8
2017-08-13T01:34:41.776Z,90.19
2017-08-13T01:35:22.354Z,90
2017-08-13T01:36:02.912Z,89.8
2017-08-13T01:36:43.488Z,89.71
2017-08-13T01:37:24.078Z,90.47
2017-08-13T01:38:04.663Z,90.47
2017-08-13T01:38:45.242Z,90.28
2017-08-13T01:39:25.833Z,90.28
2017-08-13T01:40:06.408Z,90.28
2017-08-13T01:40:46.970Z,90.28
2017-08-13T01:41:27.561Z,90.09
2017-08-13T01:42:08.150Z,90.57
2017-08-13T01:42:48.739Z,90
2017-08-13T01:43:29.328Z,90.09
2017-08-13T01:44:09.934Z,90.47
2017-08-13T01:44:50.515Z,90.47
2017-08-13T01:45:31.101Z,90.38
2017-08-13T01:46:11.666Z,90.38
2017-08-13T01:46:52.261Z,90.86
2017-08-13T01:47:32.806Z,90.57
2017-08-13T01:48:13.379Z,90.47
2017-08-13T01:48:53.947Z,90.57
2017-08-13T01:49:34.516Z,90.47
2017-08-13T01:50:15.081Z,90.57
2017-08-13T01:50:55.652Z,90.95
2017-08-13T01:51:36.222Z,90.86
2017-08-13T01:52:16.807Z,90.95
2017-08-13T01:52:57.383Z,90.95
2017-08-13T01:53:37.950Z,91.34
2017-08-13T01:54:18.503Z,90.95
2017-08-13T01:54:59.080Z,90.95
2017-08-13T01:55:39.671Z,90.95
2017-08-13T01:56:20.263Z,90.76
2017-08-13T01:57:00.838Z,90.95
2017-08-13T01:57:41.406Z,91.14
2017-08-13T01:58:22.016Z,90.95
2017-08-13T01:59:02.585Z,90.72
2017-08-13T01:59:43.156Z,90.86
2017-08-13T02:00:23.728Z,90.95
2017-08-13T02:01:04.311Z,90.67
2017-08-13T02:01:44.877Z,90.72
2017-08-13T02:02:25.452Z,90.76
2017-08-13T02:03:06.044Z,91
2017-08-13T02:03:46.644Z,90.62
2017-08-13T02:04:27.212Z,90.67
2017-08-13T02:05:07.777Z,90.62
2017-08-13T02:05:48.341Z,90.72
2017-08-13T02:06:29.046Z,90.86
2017-08-13T02:07:09.637Z,90.62
2017-08-13T02:07:50.230Z,90.76
2017-08-13T02:08:30.831Z,90.91
2017-08-13T02:09:11.416Z,91.05
2017-08-13T02:09:51.982Z,90.91
2017-08-13T02:10:32.542Z,91.19
2017-08-13T02:11:13.131Z,91.29
2017-08-13T02:11:53.720Z,91.14
2017-08-13T02:12:34.308Z,90.91
2017-08-13T02:13:14.878Z,90.95
2017-08-13T02:13:55.513Z,91.1
2017-08-13T02:14:36.105Z,90.95
2017-08-13T02:15:16.700Z,91.1
2017-08-13T02:15:57.289Z,91.24
2017-08-13T02:16:37.853Z,91
2017-08-13T02:17:18.431Z,90.62
2017-08-13T02:17:59.008Z,91
2017-08-13T02:18:39.609Z,91.19
2017-08-13T02:19:20.197Z,91.34
2017-08-13T02:20:00.816Z,90.91
2017-08-13T02:20:41.425Z,91.29
2017-08-13T02:21:22.016Z,90.91
2017-08-13T02:22:02.662Z,91.1
2017-08-13T02:22:43.256Z,90.91
2017-08-13T02:23:23.830Z,91.29
2017-08-13T02:24:04.385Z,91.49
2017-08-13T02:24:44.958Z,91.19
2017-08-13T02:25:25.539Z,91
2017-08-13T02:26:06.109Z,91.49
2017-08-13T02:26:46.671Z,91.39
2017-08-13T02:27:27.255Z,91.19
2017-08-13T02:28:07.840Z,91.49
2017-08-13T02:28:48.392Z,91.67
2017-08-13T02:29:28.957Z,91.58
2017-08-13T02:30:09.550Z,91.19
2017-08-13T02:30:50.141Z,91.29
2017-08-13T02:31:30.697Z,91.19
2017-08-13T02:32:11.280Z,91.49
2017-08-13T02:32:51.850Z,91.19
2017-08-13T02:33:32.435Z,91.39
2017-08-13T02:34:13.013Z,91.19
2017-08-13T02:34:53.590Z,91.58
2017-08-13T02:35:34.167Z,91.19
2017-08-13T02:36:14.762Z,91.19
2017-08-13T02:36:55.337Z,91.19
2017-08-13T02:37:35.892Z,91.67
2017-08-13T02:38:16.455Z,91.39
2017-08-13T02:38:57.041Z,91.29
2017-08-13T02:39:37.595Z,91.29
2017-08-13T02:40:18.192Z,91.67
2017-08-13T02:40:58.753Z,91.19
2017-08-13T02:41:39.315Z,91.49
2017-08-13T02:42:19.887Z,91.58
2017-08-13T02:43:00.468Z,91.49
2017-08-13T02:43:41.030Z,91.49
2017-08-13T02:44:21.611Z,91.49
2017-08-13T02:45:02.201Z,91.49
2017-08-13T02:45:42.770Z,91.58
2017-08-13T02:46:23.318Z,91.49
2017-08-13T02:47:03.910Z,91.58
2017-08-13T02:47:44.506Z,91.58
2017-08-13T02:48:25.075Z,91.58
2017-08-13T02:49:05.643Z,91.19
2017-08-13T02:49:46.223Z,91.49
2017-08-13T02:50:26.787Z,91.77
2017-08-13T02:51:07.364Z,91.77
2017-08-13T02:51:47.934Z,91.77
2017-08-13T02:52:28.510Z,91.77
2017-08-13T02:53:09.090Z,91.58
2017-08-13T02:53:49.663Z,91.58
2017-08-13T02:54:30.225Z,91.96
2017-08-13T02:55:10.836Z,92.06
2017-08-13T02:55:51.468Z,92.06
2017-08-13T02:56:32.036Z,92.15
2017-08-13T02:57:12.658Z,91.58
2017-08-13T02:57:53.233Z,92.06
2017-08-13T02:58:33.796Z,91.77
2017-08-13T02:59:14.387Z,92.06
2017-08-13T02:59:54.969Z,92.15
2017-08-13T03:00:35.543Z,92.06
2017-08-13T03:01:16.138Z,92.06
2017-08-13T03:01:56.715Z,92.06
2017-08-13T03:02:37.294Z,92.06
2017-08-13T03:03:17.855Z,92.15
2017-08-13T03:03:58.443Z,92.06
2017-08-13T03:04:39.004Z,92.06
2017-08-13T03:05:19.575Z,91.96
2017-08-13T03:06:00.145Z,91.58
2017-08-13T03:06:40.747Z,92.06
2017-08-13T03:07:21.326Z,92.25
2017-08-13T03:08:01.905Z,92.06
2017-08-13T03:08:42.500Z,91.49
2017-08-13T03:09:23.079Z,92.06
2017-08-13T03:10:03.690Z,92.06
2017-08-13T03:10:44.244Z,92.25
2017-08-13T03:11:24.814Z,92.06
2017-08-13T03:12:05.385Z,92.06
2017-08-13T03:12:45.958Z,92.06
2017-08-13T03:13:26.569Z,92.25
2017-08-13T03:14:07.136Z,91.58
2017-08-13T03:14:47.708Z,92.15
2017-08-13T03:15:28.278Z,92.06
2017-08-13T03:16:08.851Z,92.06
2017-08-13T03:16:49.429Z,92.54
2017-08-13T03:17:30.016Z,91.86
2017-08-13T03:18:10.574Z,91.96
2017-08-13T03:18:51.174Z,92.35
2017-08-13T03:19:31.750Z,92.25
2017-08-13T03:20:12.339Z,92.44
2017-08-13T03:20:52.902Z,92.63
2017-08-13T03:21:33.486Z,91.96
2017-08-13T03:22:14.054Z,91.96
2017-08-13T03:22:54.629Z,91.96
2017-08-13T03:23:35.223Z,92.06
2017-08-13T03:24:15.784Z,92.06
2017-08-13T03:24:56.357Z,92.25
2017-08-13T03:25:36.918Z,91.96
2017-08-13T03:26:17.487Z,91.77
2017-08-13T03:26:58.080Z,92.25
2017-08-13T03:27:38.670Z,91.96
2017-08-13T03:28:19.253Z,91.96
2017-08-13T03:28:59.839Z,92.06
2017-08-13T03:29:40.410Z,91.86
2017-08-13T03:30:20.974Z,91.86
2017-08-13T03:31:01.535Z,92.35
2017-08-13T03:31:42.106Z,92.25
2017-08-13T03:32:22.672Z,92.54
2017-08-13T03:33:03.252Z,92.54
2017-08-13T03:33:43.822Z,92.54
2017-08-13T03:34:24.389Z,92.44
2017-08-13T03:35:04.996Z,92.54
2017-08-13T03:35:45.538Z,92.54
2017-08-13T03:36:26.129Z,92.06
2017-08-13T03:37:06.725Z,92.44
2017-08-13T03:37:47.307Z,92.35
2017-08-13T03:38:27.882Z,92.54
2017-08-13T03:39:08.454Z,92.35
2017-08-13T03:39:49.044Z,92.15
2017-08-13T03:40:29.614Z,92.25
2017-08-13T03:41:10.199Z,92.44
2017-08-13T03:41:50.774Z,92.15
2017-08-13T03:42:31.353Z,91.96
2017-08-13T03:43:11.920Z,92.06
2017-08-13T03:43:52.493Z,92.44
2017-08-13T03:44:33.061Z,92.35
2017-08-13T03:45:13.629Z,92.44
2017-08-13T03:45:54.199Z,92.35
2017-08-13T03:46:34.765Z,92.44
2017-08-13T03:47:15.338Z,92.25
2017-08-13T03:47:55.919Z,92.54
2017-08-13T03:48:36.491Z,91.86
2017-08-13T03:49:17.056Z,92.44
2017-08-13T03:49:57.628Z,92.44
2017-08-13T03:50:38.190Z,91.96
2017-08-13T03:51:18.760Z,92.06
2017-08-13T03:51:59.328Z,92.06
2017-08-13T03:52:39.896Z,92.06
2017-08-13T03:53:20.502Z,92.15
2017-08-13T03:54:01.065Z,91.86
2017-08-13T03:54:41.645Z,92.06
2017-08-13T03:55:22.218Z,92.06
2017-08-13T03:56:02.788Z,91.96
2017-08-13T03:56:43.349Z,91.96
2017-08-13T03:57:23.927Z,92.25
2017-08-13T03:58:04.546Z,92.25
2017-08-13T03:58:45.122Z,92.25
2017-08-13T03:59:25.690Z,91.96
2017-08-13T04:00:06.292Z,91.86
2017-08-13T04:00:46.877Z,91.96
2017-08-13T04:01:27.453Z,92.06
2017-08-13T04:02:08.044Z,92.06
2017-08-13T04:02:48.608Z,92.25
2017-08-13T04:03:29.168Z,92.06
2017-08-13T04:04:09.749Z,92.06
2017-08-13T04:04:50.309Z,91.96
2017-08-13T04:05:30.887Z,91.96
2017-08-13T04:06:11.472Z,91.96
2017-08-13T04:06:52.032Z,92.06
2017-08-13T04:07:32.628Z,92.06
2017-08-13T04:08:13.225Z,92.06
2017-08-13T04:08:53.804Z,92.06
2017-08-13T04:09:34.380Z,92.15
2017-08-13T04:10:14.954Z,91.96
2017-08-13T04:10:55.533Z,91.96
2017-08-13T04:11:36.106Z,91.96
2017-08-13T04:12:16.683Z,91.96
2017-08-13T04:12:57.259Z,92.06
2017-08-13T04:13:37.846Z,92.15
2017-08-13T04:14:18.425Z,91.86
2017-08-13T04:14:59.016Z,92.06
2017-08-13T04:15:39.601Z,92.06
2017-08-13T04:16:20.179Z,92.06
2017-08-13T04:17:00.754Z,92.06
2017-08-13T04:17:41.325Z,92.15
2017-08-13T04:18:21.889Z,92.06
2017-08-13T04:19:02.464Z,91.96
2017-08-13T04:19:43.036Z,91.58
2017-08-13T04:20:23.618Z,92.06
2017-08-13T04:21:04.177Z,92.15
2017-08-13T04:21:44.751Z,92.25
2017-08-13T04:22:25.325Z,92.15
2017-08-13T04:23:05.915Z,92.06
2017-08-13T04:23:46.510Z,91.86
2017-08-13T04:24:27.099Z,91.77
2017-08-13T04:25:07.698Z,91.58
2017-08-13T04:25:48.273Z,91.58
2017-08-13T04:26:28.888Z,91.77
2017-08-13T04:27:09.456Z,92.15
2017-08-13T04:27:50.040Z,91.96
2017-08-13T04:28:30.611Z,91.58
2017-08-13T04:29:11.192Z,92.06
2017-08-13T04:29:51.764Z,92.06
2017-08-13T04:30:32.345Z,91.96
2017-08-13T04:31:12.914Z,91.77
2017-08-13T04:31:53.527Z,91.96
2017-08-13T04:32:34.098Z,91.96
2017-08-13T04:33:14.684Z,91.77
2017-08-13T04:33:55.259Z,92.06
2017-08-13T04:34:35.865Z,91.96
2017-08-13T04:35:16.493Z,91.58
2017-08-13T04:35:57.066Z,91.67
2017-08-13T04:36:37.632Z,91.43
2017-08-13T04:37:18.198Z,91.29
2017-08-13T04:37:58.784Z,91.77
2017-08-13T04:38:39.364Z,91.43
2017-08-13T04:39:19.943Z,91.91
2017-08-13T04:40:00.520Z,91.63
2017-08-13T04:40:41.126Z,91.63
2017-08-13T04:41:21.692Z,91.67
2017-08-13T04:42:02.260Z,91.29
2017-08-13T04:42:42.836Z,91.49
2017-08-13T04:43:23.395Z,91.58
2017-08-13T04:44:03.988Z,91.43
2017-08-13T04:44:44.544Z,91.49
2017-08-13T04:45:25.125Z,91.43
2017-08-13T04:46:05.689Z,90.81
2017-08-13T04:46:46.244Z,91.34
2017-08-13T04:47:26.813Z,91.14
2017-08-13T04:48:07.372Z,91.34
2017-08-13T04:48:47.945Z,91.19
2017-08-13T04:49:28.550Z,91.58
2017-08-13T04:50:09.112Z,91.49
2017-08-13T04:50:49.724Z,91.58
2017-08-13T04:51:30.280Z,91.53
2017-08-13T04:52:10.860Z,91.58
2017-08-13T04:52:51.421Z,91.63
2017-08-13T04:53:31.987Z,91.63
2017-08-13T04:54:12.562Z,91.82
2017-08-13T04:54:53.132Z,91.72
2017-08-13T04:55:33.709Z,91.63
2017-08-13T04:56:14.277Z,91.63
2017-08-13T04:56:54.858Z,91.91
2017-08-13T04:57:35.441Z,91.24
2017-08-13T04:58:16.015Z,91.43
2017-08-13T04:58:56.588Z,91.43
2017-08-13T04:59:37.156Z,90.95
2017-08-13T05:00:17.732Z,90.95
2017-08-13T05:00:58.304Z,90.95
2017-08-13T05:01:38.886Z,91.14
2017-08-13T05:02:19.450Z,91.34
2017-08-13T05:03:00.028Z,91.53
2017-08-13T05:03:40.594Z,90.95
2017-08-13T05:04:21.188Z,91.34
2017-08-13T05:05:01.770Z,91.14
2017-08-13T05:05:42.338Z,91.14
2017-08-13T05:06:22.909Z,91.14
2017-08-13T05:07:03.479Z,91.14
2017-08-13T05:07:44.072Z,91.14
2017-08-13T05:08:24.691Z,91.63
2017-08-13T05:09:05.268Z,91.91
2017-08-13T05:09:45.853Z,91.43
2017-08-13T05:10:26.427Z,91.63
2017-08-13T05:11:06.997Z,91.24
2017-08-13T05:11:47.572Z,91.05
2017-08-13T05:12:28.151Z,91.82
2017-08-13T05:13:08.727Z,91.91
2017-08-13T05:13:49.325Z,91.53
2017-08-13T05:14:29.908Z,91.53
2017-08-13T05:15:10.503Z,91.34
2017-08-13T05:15:51.098Z,91.53
2017-08-13T05:16:31.660Z,91.63
2017-08-13T05:17:12.250Z,91.91
2017-08-13T05:17:52.851Z,91.63
2017-08-13T05:18:33.461Z,91.24
2017-08-13T05:19:14.053Z,91.05
2017-08-13T05:19:54.618Z,90.86
2017-08-13T05:20:35.212Z,91.05
2017-08-13T05:21:15.787Z,91.28
2017-08-13T05:21:56.376Z,91.05
2017-08-13T05:22:36.955Z,91.24
2017-08-13T05:23:17.527Z,91.24
2017-08-13T05:23:58.091Z,90.86
2017-08-13T05:24:38.684Z,90.67
2017-08-13T05:25:19.253Z,90.67
2017-08-13T05:25:59.823Z,90.86
2017-08-13T05:26:40.416Z,90.95
2017-08-13T05:27:20.988Z,90.52
2017-08-13T05:28:01.540Z,91.09
2017-08-13T05:28:42.115Z,90.9
2017-08-13T05:29:22.687Z,91.09
2017-08-13T05:30:03.269Z,90.23
2017-08-13T05:30:43.831Z,90.52
2017-08-13T05:31:24.415Z,90.52
2017-08-13T05:32:05.000Z,90.61
2017-08-13T05:32:45.593Z,90.61
2017-08-13T05:33:26.168Z,91
2017-08-13T05:34:06.757Z,90.81
2017-08-13T05:34:47.322Z,91
2017-08-13T05:35:27.905Z,91
2017-08-13T05:36:08.489Z,91
2017-08-13T05:36:49.057Z,90.71
2017-08-13T05:37:29.644Z,90.71
2017-08-13T05:38:10.247Z,90.33
2017-08-13T05:38:50.807Z,89.94
2017-08-13T05:39:31.380Z,90.04
2017-08-13T05:40:11.950Z,89.94
2017-08-13T05:40:52.518Z,89.75
2017-08-13T05:41:33.132Z,90.04
2017-08-13T05:42:13.701Z,90.23
2017-08-13T05:42:54.273Z,89.94
2017-08-13T05:43:34.849Z,90.23
2017-08-13T05:44:15.449Z,89.47
2017-08-13T05:44:56.035Z,89.56
2017-08-13T05:45:36.615Z,89.75
2017-08-13T05:46:17.196Z,89.75
2017-08-13T05:46:57.763Z,89.75
2017-08-13T05:47:38.336Z,89.75
2017-08-13T05:48:18.921Z,89.85
2017-08-13T05:48:59.483Z,89.89
2017-08-13T05:49:40.069Z,89.27
2017-08-13T05:50:20.647Z,88.93
2017-08-13T05:51:01.219Z,89.47
2017-08-13T05:51:41.801Z,89.51
2017-08-13T05:52:22.371Z,89.51
2017-08-13T05:53:02.947Z,89.51
2017-08-13T05:53:43.531Z,89.51
2017-08-13T05:54:24.090Z,89.22
2017-08-13T05:55:04.646Z,89.12
2017-08-13T05:55:45.208Z,89.89
2017-08-13T05:56:25.810Z,89.89
2017-08-13T05:57:06.374Z,89.61
2017-08-13T05:57:46.948Z,89.7
2017-08-13T05:58:27.530Z,89.56
2017-08-13T05:59:08.106Z,89.32
2017-08-13T05:59:48.690Z,89.27
2017-08-13T06:00:29.258Z,89.27
2017-08-13T06:01:09.831Z,89.41
2017-08-13T06:01:50.403Z,89.22
2017-08-13T06:02:30.970Z,89.47
2017-08-13T06:03:11.544Z,89.99
2017-08-13T06:03:52.116Z,89.65
2017-08-13T06:04:32.699Z,89.65
2017-08-13T06:05:13.274Z,89.79
2017-08-13T06:05:53.887Z,89.7
2017-08-13T06:06:34.454Z,89.61
2017-08-13T06:07:15.062Z,89.89
2017-08-13T06:07:55.624Z,89.12
2017-08-13T06:08:36.192Z,88.45
2017-08-13T06:09:16.770Z,89.03
2017-08-13T06:09:57.333Z,88.84
2017-08-13T06:10:37.916Z,88.93
2017-08-13T06:11:18.488Z,88.74
2017-08-13T06:11:59.067Z,89.03
2017-08-13T06:12:39.691Z,88.74
2017-08-13T06:13:20.320Z,88.93
2017-08-13T06:14:00.905Z,88.84
2017-08-13T06:14:41.511Z,88.55
2017-08-13T06:15:22.103Z,88.31
2017-08-13T06:16:02.683Z,87.54
2017-08-13T06:16:43.279Z,87.82
2017-08-13T06:17:23.865Z,88.02
2017-08-13T06:18:04.438Z,87.54
2017-08-13T06:18:45.033Z,87.35
2017-08-13T06:19:25.612Z,86.68
2017-08-13T06:20:06.168Z,86.77
2017-08-13T06:20:46.736Z,86.87
2017-08-13T06:21:27.307Z,86.96
2017-08-13T06:22:07.904Z,86.96
2017-08-13T06:22:48.481Z,86.87
2017-08-13T06:23:29.108Z,86.29
2017-08-13T06:24:09.743Z,85.62
2017-08-13T06:24:50.328Z,85.42
2017-08-13T06:25:30.910Z,85.42
2017-08-13T06:26:11.485Z,85.71
2017-08-13T06:26:52.074Z,86
2017-08-13T06:27:32.683Z,85.71
2017-08-13T06:28:13.265Z,85.71
2017-08-13T06:28:53.848Z,85.42
2017-08-13T06:29:34.433Z,84.95
2017-08-13T06:30:15.031Z,85.33
2017-08-13T06:30:55.615Z,84.47
2017-08-13T06:31:36.187Z,84.99
2017-08-13T06:32:16.749Z,84.51
2017-08-13T06:32:57.346Z,84.03
2017-08-13T06:33:37.918Z,83.16
2017-08-13T06:34:18.490Z,83.36
2017-08-13T06:34:59.061Z,83.45
2017-08-13T06:35:39.620Z,84.22
2017-08-13T06:36:20.194Z,84.22
2017-08-13T06:37:00.766Z,84.03
2017-08-13T06:37:41.346Z,83.84
2017-08-13T06:38:21.910Z,83.84
2017-08-13T06:39:02.480Z,83.16
2017-08-13T06:39:43.061Z,82.97
2017-08-13T06:40:23.648Z,83.93
2017-08-13T06:41:04.226Z,83.26
2017-08-13T06:41:44.816Z,83.64
2017-08-13T06:42:25.403Z,83.49
2017-08-13T06:43:06.001Z,83.11
2017-08-13T06:43:46.591Z,83.78
2017-08-13T06:44:27.177Z,83.97
2017-08-13T06:45:07.746Z,83.59
2017-08-13T06:45:48.317Z,83.87
2017-08-13T06:46:28.889Z,83.2
2017-08-13T06:47:09.485Z,82.53
2017-08-13T06:47:50.059Z,82.05
2017-08-13T06:48:30.665Z,82.34
2017-08-13T06:49:11.243Z,82.63
2017-08-13T06:49:51.824Z,82.73
2017-08-13T06:50:32.393Z,82.24
2017-08-13T06:51:13.001Z,82.15
2017-08-13T06:51:53.605Z,82.05
2017-08-13T06:52:34.201Z,82.15
2017-08-13T06:53:14.770Z,81.76
2017-08-13T06:53:55.337Z,82.24
2017-08-13T06:54:35.919Z,81.57
2017-08-13T06:55:16.492Z,81.28
2017-08-13T06:55:57.076Z,80.8
2017-08-13T06:56:37.691Z,80.32
2017-08-13T06:57:18.239Z,80.9
2017-08-13T06:57:58.808Z,80.9
2017-08-13T06:58:39.377Z,81.09
2017-08-13T06:59:19.960Z,81.09
2017-08-13T07:00:00.544Z,80.28
2017-08-13T07:00:41.132Z,80.57
2017-08-13T07:01:21.738Z,80.9
2017-08-13T07:02:02.319Z,81.24
2017-08-13T07:02:42.900Z,81.24
2017-08-13T07:03:23.493Z,81.24
2017-08-13T07:04:04.075Z,81.24
2017-08-13T07:04:44.654Z,80.86
2017-08-13T07:05:25.232Z,80.47
2017-08-13T07:06:05.822Z,80.57
2017-08-13T07:06:46.380Z,80.96
2017-08-13T07:07:26.972Z,80.86
2017-08-13T07:08:07.539Z,80.96
2017-08-13T07:08:48.126Z,81.34
2017-08-13T07:09:28.716Z,81.24
2017-08-13T07:10:09.321Z,81.05
2017-08-13T07:10:49.886Z,81.24
2017-08-13T07:11:30.458Z,81.53
2017-08-13T07:12:11.014Z,81.92
2017-08-13T07:12:51.584Z,81.43
2017-08-13T07:13:32.171Z,81.63
2017-08-13T07:14:12.746Z,81.76
2017-08-13T07:14:53.315Z,81.28
2017-08-13T07:15:33.879Z,80.71
2017-08-13T07:16:14.458Z,80.04
2017-08-13T07:16:55.016Z,79.84
2017-08-13T07:17:35.591Z,79.75
2017-08-13T07:18:16.150Z,80.61
2017-08-13T07:18:56.729Z,80.99
2017-08-13T07:19:37.301Z,80.99
2017-08-13T07:20:17.898Z,80.17
2017-08-13T07:20:58.461Z,79.88
2017-08-13T07:21:39.061Z,78.63
2017-08-13T07:22:19.654Z,78.19
2017-08-13T07:23:00.227Z,77.33
2017-08-13T07:23:40.817Z,76.56
2017-08-13T07:24:21.430Z,75.02
2017-08-13T07:25:01.988Z,74.54
2017-08-13T07:25:42.583Z,74.44
2017-08-13T07:26:23.172Z,74.63
2017-08-13T07:27:03.739Z,74.92
2017-08-13T07:27:44.313Z,75.49
2017-08-13T07:28:24.877Z,76.07
2017-08-13T07:29:05.441Z,75.88
2017-08-13T07:29:46.019Z,75.98
2017-08-13T07:30:26.583Z,75.69
2017-08-13T07:31:07.168Z,74.63
2017-08-13T07:31:47.753Z,74.82
2017-08-13T07:32:28.346Z,75.05
2017-08-13T07:33:08.918Z,75.05
2017-08-13T07:33:49.498Z,73.13
2017-08-13T07:34:30.135Z,73.13
2017-08-13T07:35:10.728Z,72.65
2017-08-13T07:35:51.303Z,72.9
2017-08-13T07:36:31.907Z,72.52
2017-08-13T07:37:12.470Z,72.8
2017-08-13T07:37:53.045Z,72.8
2017-08-13T07:38:33.630Z,73.57
2017-08-13T07:39:14.209Z,74.05
2017-08-13T07:39:54.802Z,74.6
2017-08-13T07:40:35.398Z,74.5
2017-08-13T07:41:16.014Z,75.02
2017-08-13T07:41:56.633Z,75.69
2017-08-13T07:42:37.216Z,75.31
2017-08-13T07:43:17.802Z,75.31
2017-08-13T07:43:58.411Z,75.31
2017-08-13T07:44:39.007Z,75.21
2017-08-13T07:45:19.591Z,74.73
2017-08-13T07:46:00.166Z,75.02
2017-08-13T07:46:40.755Z,74.92
2017-08-13T07:47:21.344Z,74.54
2017-08-13T07:48:01.916Z,74.67
2017-08-13T07:48:42.511Z,74.57
2017-08-13T07:49:23.102Z,74.57
2017-08-13T07:50:03.707Z,74.48
2017-08-13T07:50:44.305Z,74.96
2017-08-13T07:51:24.880Z,74.9
2017-08-13T07:52:05.457Z,74.13
2017-08-13T07:52:46.034Z,74.13
2017-08-13T07:53:26.609Z,72.72
2017-08-13T07:54:07.174Z,69.54
2017-08-13T07:54:47.775Z,68.48
2017-08-13T07:55:28.384Z,68.68
2017-08-13T07:56:08.950Z,68.38
2017-08-13T07:56:49.548Z,69.06
2017-08-13T07:57:30.118Z,69.51
2017-08-13T07:58:10.701Z,69.6
2017-08-13T07:58:51.287Z,70.56
2017-08-13T07:59:31.854Z,70.86
2017-08-13T08:00:12.434Z,71.24
2017-08-13T08:00:53.013Z,71.53
2017-08-13T08:01:33.565Z,71.37
2017-08-13T08:02:14.140Z,71.66
2017-08-13T08:02:54.737Z,70.98
2017-08-13T08:03:35.313Z,70.98
2017-08-13T08:04:15.906Z,70.73
2017-08-13T08:04:56.481Z,70.25
2017-08-13T08:05:37.055Z,69.57
2017-08-13T08:06:17.635Z,67.2
2017-08-13T08:06:58.222Z,66.43
2017-08-13T08:07:38.802Z,66.82
2017-08-13T08:08:19.376Z,66.88
2017-08-13T08:08:59.954Z,66.97
2017-08-13T08:09:40.528Z,66.97
2017-08-13T08:10:21.103Z,67.16
2017-08-13T08:11:01.689Z,67.68
2017-08-13T08:11:42.281Z,67.4
2017-08-13T08:12:22.861Z,67
2017-08-13T08:13:03.447Z,67.07
2017-08-13T08:13:44.042Z,67.55
2017-08-13T08:14:24.624Z,68.07
2017-08-13T08:15:05.203Z,68.45
2017-08-13T08:15:45.789Z,67.07
2017-08-13T08:16:26.369Z,67.68
2017-08-13T08:17:06.986Z,67.68
2017-08-13T08:17:47.560Z,67.1
2017-08-13T08:18:28.162Z,67.2
2017-08-13T08:19:08.704Z,67
2017-08-13T08:19:49.301Z,65.27
2017-08-13T08:20:29.910Z,64.4
2017-08-13T08:21:10.508Z,63.63
2017-08-13T08:21:51.079Z,62.66
2017-08-13T08:22:31.664Z,62.73
2017-08-13T08:23:12.272Z,63.7
2017-08-13T08:23:52.873Z,64.66
2017-08-13T08:24:33.443Z,65.53
2017-08-13T08:25:14.051Z,65.05
2017-08-13T08:25:54.624Z,63.98
2017-08-13T08:26:35.211Z,64.08
2017-08-13T08:27:15.789Z,63.89
2017-08-13T08:27:56.377Z,64.08
2017-08-13T08:28:36.995Z,65.05
2017-08-13T08:29:17.584Z,66.39
2017-08-13T08:29:58.158Z,66.3
2017-08-13T08:30:38.788Z,66.52
2017-08-13T08:31:19.359Z,65.53
2017-08-13T08:31:59.947Z,66.52
2017-08-13T08:32:40.513Z,66.14
2017-08-13T08:33:21.143Z,65.08
2017-08-13T08:34:01.702Z,64.98
2017-08-13T08:34:42.291Z,62.57
2017-08-13T08:35:22.897Z,62.57
2017-08-13T08:36:03.493Z,63.73
2017-08-13T08:36:44.068Z,63.73
2017-08-13T08:37:24.661Z,63.44
2017-08-13T08:38:05.249Z,63.92
2017-08-13T08:38:45.828Z,64.59
2017-08-13T08:39:26.411Z,64.82
2017-08-13T08:40:07.005Z,65.3
2017-08-13T08:40:47.581Z,64.92
2017-08-13T08:41:28.165Z,64.72
2017-08-13T08:42:08.756Z,65.05
2017-08-13T08:42:49.390Z,64.47
2017-08-13T08:43:29.949Z,63.89
2017-08-13T08:44:10.508Z,62.73
2017-08-13T08:44:51.105Z,62.82
2017-08-13T08:45:31.688Z,62.92
2017-08-13T08:46:12.269Z,62.82
2017-08-13T08:46:52.833Z,63.82